createdAt,value
2023-01-23T00:02:25.611Z,1.30
2023-01-23T00:05:11.304Z,1.48
2023-01-23T00:07:56.761Z,1.58
2023-01-23T00:10:42.349Z,1.65
2023-01-23T00:13:27.938Z,1.52
2023-01-23T00:16:33.096Z,1.58
2023-01-23T00:19:18.479Z,1.58
2023-01-23T00:22:03.859Z,1.70
2023-01-23T00:24:49.294Z,1.88
2023-01-23T00:27:35.031Z,1.83
2023-01-23T00:30:20.620Z,2.05
2023-01-23T00:33:06.529Z,1.63
2023-01-23T00:35:54.876Z,1.90
2023-01-23T00:38:41.593Z,2.05
2023-01-23T00:41:27.474Z,1.45
2023-01-23T00:44:12.964Z,2.38
2023-01-23T00:46:58.810Z,1.70
2023-01-23T00:49:46.218Z,2.22
2023-01-23T00:52:31.763Z,2.28
2023-01-23T00:55:17.284Z,2.55
2023-01-23T00:58:02.692Z,1.70
2023-01-23T01:00:48.256Z,1.83
2023-01-23T01:03:33.854Z,2.88
2023-01-23T01:06:19.352Z,2.22
2023-01-23T01:09:04.952Z,2.10
2023-01-23T01:11:50.828Z,2.00
2023-01-23T01:14:36.572Z,1.97
2023-01-23T01:17:22.291Z,1.77
2023-01-23T01:20:08.359Z,2.10
2023-01-23T01:22:55.236Z,1.75
2023-01-23T01:25:40.757Z,1.93
2023-01-23T01:28:27.265Z,1.73
2023-01-23T01:31:14.991Z,1.55
2023-01-23T01:34:00.759Z,1.77
2023-01-23T01:36:46.419Z,1.50
2023-01-23T01:39:32.040Z,1.97
2023-01-23T01:42:17.754Z,1.75
2023-01-23T01:45:03.299Z,1.83
2023-01-23T01:47:48.676Z,1.77
2023-01-23T01:50:35.280Z,1.70
2023-01-23T01:53:23.106Z,1.42
2023-01-23T01:56:12.255Z,1.27
2023-01-23T01:58:59.436Z,1.90
2023-01-23T02:01:47.576Z,2.03
2023-01-23T02:04:36.617Z,2.15
2023-01-23T02:07:47.067Z,1.60
2023-01-23T02:10:34.602Z,1.60
2023-01-23T02:13:36.052Z,1.80
2023-01-23T02:16:29.480Z,1.40
2023-01-23T02:19:40.491Z,2.08
2023-01-23T02:22:36.774Z,1.70
2023-01-23T02:25:37.767Z,1.80
2023-01-23T02:28:23.449Z,1.95
2023-01-23T02:31:09.554Z,1.70
2023-01-23T02:33:57.475Z,2.10
2023-01-23T02:36:47.468Z,1.50
2023-01-23T02:39:33.166Z,1.92
2023-01-23T02:42:19.315Z,1.42
2023-01-23T02:45:05.427Z,1.47
2023-01-23T02:47:51.519Z,1.98
2023-01-23T02:50:36.920Z,1.55
2023-01-23T02:53:22.351Z,1.48
2023-01-23T02:56:08.479Z,2.13
2023-01-23T02:59:12.803Z,1.80
2023-01-23T03:01:58.292Z,2.10
2023-01-23T03:04:44.185Z,2.03
2023-01-23T03:07:29.720Z,1.70
2023-01-23T03:10:15.450Z,1.83
2023-01-23T03:13:07.072Z,1.80
2023-01-23T03:15:56.276Z,2.40
2023-01-23T03:18:53.389Z,2.10
2023-01-23T03:21:40.921Z,1.70
2023-01-23T03:24:26.492Z,1.65
2023-01-23T03:27:12.605Z,1.90
2023-01-23T03:30:13.480Z,2.40
2023-01-23T03:32:58.723Z,2.40
2023-01-23T03:35:44.318Z,1.85
2023-01-23T03:38:29.981Z,1.67
2023-01-23T03:41:27.337Z,2.30
2023-01-23T03:44:12.921Z,2.17
2023-01-23T03:46:58.543Z,2.33
2023-01-23T03:49:44.140Z,1.73
2023-01-23T03:52:29.727Z,1.95
2023-01-23T03:55:15.373Z,1.80
2023-01-23T03:58:00.779Z,2.00
2023-01-23T04:00:46.608Z,1.98
2023-01-23T04:03:32.238Z,2.13
2023-01-23T04:06:18.888Z,2.20
2023-01-23T04:09:04.526Z,1.77
2023-01-23T04:11:49.790Z,1.92
2023-01-23T04:14:37.428Z,1.90
2023-01-23T04:17:23.251Z,2.28
2023-01-23T04:20:09.848Z,2.60
2023-01-23T04:22:55.694Z,2.95
2023-01-23T04:25:41.047Z,2.25
2023-01-23T04:28:26.370Z,1.90
2023-01-23T04:31:12.348Z,2.95
2023-01-23T04:33:57.686Z,2.88
2023-01-23T04:36:43.447Z,2.67
2023-01-23T04:39:28.850Z,2.40
2023-01-23T04:42:14.173Z,2.50
2023-01-23T04:44:59.706Z,2.58
2023-01-23T04:47:45.264Z,2.25
2023-01-23T04:50:32.772Z,2.72
2023-01-23T04:53:18.541Z,2.75
2023-01-23T04:56:04.663Z,2.25
2023-01-23T04:58:50.039Z,3.00
2023-01-23T05:01:35.853Z,2.83
2023-01-23T05:04:21.156Z,2.50
2023-01-23T05:07:06.794Z,3.03
2023-01-23T05:09:52.284Z,3.38
2023-01-23T05:12:37.738Z,3.20
2023-01-23T05:15:23.179Z,2.65
2023-01-23T05:18:08.389Z,2.80
2023-01-23T05:20:53.960Z,2.90
2023-01-23T05:23:39.305Z,3.08
2023-01-23T05:26:24.974Z,2.80
2023-01-23T05:29:10.239Z,3.03
2023-01-23T05:31:55.792Z,3.20
2023-01-23T05:34:41.287Z,2.88
2023-01-23T05:37:26.710Z,3.53
2023-01-23T05:40:13.277Z,2.88
2023-01-23T05:42:58.951Z,2.92
2023-01-23T05:45:44.180Z,2.90
2023-01-23T05:48:29.962Z,2.42
2023-01-23T05:51:15.734Z,3.30
2023-01-23T05:54:02.656Z,3.08
2023-01-23T05:56:48.136Z,2.92
2023-01-23T05:59:33.514Z,2.90
2023-01-23T06:02:19.112Z,3.10
2023-01-23T06:05:04.740Z,2.33
2023-01-23T06:07:50.434Z,3.42
2023-01-23T06:10:38.436Z,2.90
2023-01-23T06:13:23.965Z,2.83
2023-01-23T06:16:10.745Z,3.33
2023-01-23T06:18:56.168Z,3.10
2023-01-23T06:21:41.623Z,2.67
2023-01-23T06:24:27.022Z,2.60
2023-01-23T06:27:12.612Z,2.97
2023-01-23T06:29:58.263Z,2.88
2023-01-23T06:32:43.793Z,3.05
2023-01-23T06:35:29.134Z,3.00
2023-01-23T06:38:14.754Z,2.90
2023-01-23T06:41:00.374Z,3.40
2023-01-23T06:43:45.755Z,3.60
2023-01-23T06:46:31.063Z,2.90
2023-01-23T06:49:16.765Z,3.40
2023-01-23T06:52:02.419Z,3.22
2023-01-23T06:54:47.889Z,2.70
2023-01-23T06:57:34.040Z,3.10
2023-01-23T07:00:20.308Z,3.30
2023-01-23T07:03:06.167Z,3.20
2023-01-23T07:05:52.168Z,3.38
2023-01-23T07:08:38.913Z,2.75
2023-01-23T07:11:24.525Z,2.97
2023-01-23T07:14:09.978Z,2.95
2023-01-23T07:16:55.640Z,3.03
2023-01-23T07:19:41.255Z,3.17
2023-01-23T07:22:26.643Z,2.63
2023-01-23T07:25:12.333Z,3.67
2023-01-23T07:27:57.882Z,3.00
2023-01-23T07:30:43.460Z,3.05
2023-01-23T07:33:29.025Z,2.80
2023-01-23T07:36:14.737Z,3.10
2023-01-23T07:39:00.383Z,2.90
2023-01-23T07:41:46.507Z,3.38
2023-01-23T07:44:32.161Z,3.25
2023-01-23T07:47:17.642Z,3.00
2023-01-23T07:50:03.009Z,3.75
2023-01-23T07:52:48.419Z,3.80
2023-01-23T07:55:34.422Z,3.35
2023-01-23T07:58:20.236Z,3.45
2023-01-23T08:01:10.096Z,3.35
2023-01-23T08:03:55.552Z,3.70
2023-01-23T08:06:41.137Z,3.00
2023-01-23T08:09:26.415Z,3.40
2023-01-23T08:12:12.499Z,4.05
2023-01-23T08:14:58.364Z,3.70
2023-01-23T08:17:43.721Z,3.40
2023-01-23T08:20:29.230Z,3.67
2023-01-23T08:23:14.700Z,4.05
2023-01-23T08:26:03.379Z,3.42
2023-01-23T08:28:48.900Z,4.28
2023-01-23T08:31:35.905Z,3.88
2023-01-23T08:34:22.023Z,3.38
2023-01-23T08:37:07.724Z,3.72
2023-01-23T08:39:53.518Z,4.33
2023-01-23T08:42:38.857Z,3.65
2023-01-23T08:45:25.412Z,3.90
2023-01-23T08:48:11.055Z,3.78
2023-01-23T08:51:04.154Z,3.90
2023-01-23T08:53:52.703Z,4.20
2023-01-23T08:56:38.268Z,4.20
2023-01-23T08:59:23.744Z,4.35
2023-01-23T09:02:11.822Z,4.53
2023-01-23T09:04:57.241Z,3.97
2023-01-23T09:07:42.600Z,4.25
2023-01-23T09:10:27.902Z,4.32
2023-01-23T09:13:13.680Z,3.70
2023-01-23T09:15:59.137Z,4.85
2023-01-23T09:18:44.674Z,3.72
2023-01-23T09:21:30.195Z,4.65
2023-01-23T09:24:16.739Z,4.97
2023-01-23T09:27:02.419Z,4.07
2023-01-23T09:29:49.112Z,4.63
2023-01-23T09:32:34.974Z,4.27
2023-01-23T09:35:20.840Z,5.05
2023-01-23T09:38:07.600Z,4.38
2023-01-23T09:40:56.205Z,4.70
2023-01-23T09:43:57.787Z,4.57
2023-01-23T09:46:52.016Z,4.27
2023-01-23T09:49:58.416Z,4.55
2023-01-23T09:52:54.268Z,4.05
2023-01-23T09:55:44.197Z,4.50
2023-01-23T09:58:58.183Z,5.22
2023-01-23T10:01:43.996Z,4.97
2023-01-23T10:04:31.456Z,5.15
2023-01-23T10:07:30.819Z,4.90
2023-01-23T10:10:36.677Z,4.53
2023-01-23T10:13:43.962Z,5.45
2023-01-23T10:16:49.572Z,4.43
2023-01-23T10:19:48.639Z,6.10
2023-01-23T10:22:55.225Z,5.60
2023-01-23T10:25:41.310Z,4.83
2023-01-23T10:28:32.277Z,4.90
2023-01-23T10:31:39.695Z,5.18
2023-01-23T10:34:47.416Z,5.65
2023-01-23T10:38:00.502Z,5.38
2023-01-23T10:41:06.434Z,5.32
2023-01-23T10:43:53.849Z,5.13
2023-01-23T10:46:46.652Z,5.70
2023-01-23T10:49:39.989Z,5.07
2023-01-23T10:52:32.579Z,4.97
2023-01-23T10:55:23.624Z,5.15
2023-01-23T10:58:29.531Z,4.82
2023-01-23T11:01:30.439Z,5.22
2023-01-23T11:04:21.495Z,5.90
2023-01-23T11:07:16.171Z,5.23
2023-01-23T11:10:18.149Z,5.45
2023-01-23T11:13:03.866Z,5.03
2023-01-23T11:15:49.376Z,6.22
2023-01-23T11:18:42.471Z,5.53
2023-01-23T11:21:30.073Z,5.50
2023-01-23T11:24:41.117Z,5.47
2023-01-23T11:27:30.817Z,4.72
2023-01-23T11:30:31.564Z,5.65
2023-01-23T11:33:36.355Z,6.05
2023-01-23T11:36:24.304Z,5.40
2023-01-23T11:39:32.302Z,5.20
2023-01-23T11:42:19.537Z,6.00
2023-01-23T11:45:13.057Z,5.22
2023-01-23T11:48:10.638Z,4.97
2023-01-23T11:51:05.346Z,5.05
2023-01-23T11:54:12.806Z,4.90
2023-01-23T11:57:05.587Z,5.53
2023-01-23T12:00:07.312Z,5.35
2023-01-23T12:03:33.357Z,5.90
2023-01-23T12:06:34.481Z,5.40
2023-01-23T12:09:21.946Z,6.60
2023-01-23T12:12:44.835Z,5.20
2023-01-23T12:16:07.953Z,6.70
2023-01-23T12:19:17.326Z,4.90
2023-01-23T12:22:22.811Z,5.63
2023-01-23T12:25:23.068Z,4.88
2023-01-23T12:28:26.865Z,6.22
2023-01-23T12:31:28.960Z,5.05
2023-01-23T12:34:35.785Z,4.77
2023-01-23T12:37:48.139Z,4.70
2023-01-23T12:40:41.152Z,4.57
2023-01-23T12:43:40.031Z,4.63
2023-01-23T12:46:34.160Z,4.70
2023-01-23T12:49:29.675Z,7.78
2023-01-23T12:52:23.718Z,13.85
2023-01-23T12:55:25.787Z,5.90
2023-01-23T12:58:17.603Z,6.97
2023-01-23T13:01:30.388Z,6.82
2023-01-23T13:04:28.283Z,5.32
2023-01-23T13:07:16.533Z,7.22
2023-01-23T13:10:26.516Z,6.03
2023-01-23T13:13:11.894Z,4.90
2023-01-23T13:16:15.313Z,5.45
2023-01-23T13:19:33.769Z,5.65
2023-01-23T13:22:32.757Z,5.93
2023-01-23T13:25:19.651Z,4.97
2023-01-23T13:28:27.693Z,5.70
2023-01-23T13:31:25.996Z,5.63
2023-01-23T13:34:31.370Z,6.03
2023-01-23T13:37:28.544Z,5.05
2023-01-23T13:40:16.647Z,4.82
2023-01-23T13:43:41.870Z,5.53
2023-01-23T14:25:17.962Z,5.05
2023-01-23T14:28:05.524Z,4.75
2023-01-23T14:30:56.596Z,4.97
2023-01-23T14:33:43.748Z,5.43
2023-01-23T14:36:32.056Z,5.82
2023-01-23T14:39:23.017Z,5.25
2023-01-23T14:42:16.515Z,4.50
2023-01-23T14:45:06.004Z,4.97
2023-01-23T14:48:04.533Z,5.65
2023-01-23T14:51:02.263Z,5.63
2023-01-23T14:53:56.832Z,5.10
2023-01-23T14:56:43.905Z,5.82
2023-01-23T14:59:35.882Z,6.18
2023-01-23T15:02:34.447Z,5.57
2023-01-23T15:05:27.352Z,5.45
2023-01-23T15:08:26.709Z,4.93
2023-01-23T15:11:13.006Z,4.70
2023-01-23T15:14:02.147Z,5.35
2023-01-23T15:16:47.514Z,5.45
2023-01-23T15:19:36.417Z,5.75
2023-01-23T15:22:29.661Z,6.20
2023-01-23T15:25:28.597Z,6.68
2023-01-23T15:28:31.627Z,4.93
2023-01-23T15:31:41.393Z,5.70
2023-01-23T15:34:29.089Z,5.22
2023-01-23T15:37:14.361Z,6.05
2023-01-23T15:40:02.710Z,5.43
2023-01-23T15:43:11.793Z,5.77
2023-01-23T15:45:57.190Z,5.47
2023-01-23T15:48:42.626Z,5.53
2023-01-23T15:51:27.924Z,6.70
2023-01-23T15:54:26.478Z,6.45
2023-01-23T15:57:13.760Z,5.95
2023-01-23T16:00:00.149Z,5.80
2023-01-23T16:02:55.672Z,5.55
2023-01-23T16:05:42.118Z,5.90
2023-01-23T16:08:27.762Z,5.03
2023-01-23T16:11:13.156Z,5.13
2023-01-23T16:13:58.375Z,6.47
2023-01-23T16:16:43.893Z,5.72
2023-01-23T16:19:29.257Z,5.75
2023-01-23T16:22:22.480Z,5.40
2023-01-23T16:25:17.982Z,5.40
2023-01-23T16:28:03.523Z,6.05
2023-01-23T16:30:50.656Z,5.30
2023-01-23T16:33:36.144Z,5.45
2023-01-23T16:36:21.412Z,5.80
2023-01-23T16:39:10.623Z,5.68
2023-01-23T16:41:55.984Z,5.70
2023-01-23T16:44:41.610Z,5.88
2023-01-23T16:47:27.096Z,5.40
2023-01-23T16:50:15.248Z,5.65
2023-01-23T16:53:09.448Z,5.68
2023-01-23T16:55:56.713Z,8.85
2023-01-23T16:58:42.073Z,5.88
2023-01-23T17:01:29.424Z,5.50
2023-01-23T17:04:18.968Z,5.47
2023-01-23T17:07:09.446Z,6.38
2023-01-23T17:09:54.686Z,6.20
2023-01-23T17:12:40.086Z,6.20
2023-01-23T17:15:30.634Z,6.00
2023-01-23T17:18:47.581Z,6.57
2023-01-23T17:21:34.646Z,5.60
2023-01-23T17:24:20.208Z,6.85
2023-01-23T17:27:05.641Z,6.10
2023-01-23T17:29:51.477Z,5.75
2023-01-23T17:32:37.293Z,6.43
2023-01-23T17:35:31.387Z,5.55
2023-01-23T17:38:19.967Z,4.97
2023-01-23T17:41:06.477Z,5.00
2023-01-23T17:43:52.712Z,5.63
2023-01-23T17:46:39.413Z,5.30
2023-01-23T17:49:33.700Z,5.75
2023-01-23T17:52:21.534Z,5.18
2023-01-23T17:55:13.515Z,6.05
2023-01-23T17:57:58.865Z,5.35
2023-01-23T18:00:48.697Z,5.03
2023-01-23T18:03:34.637Z,5.70
2023-01-23T18:06:20.337Z,5.45
2023-01-23T18:09:05.940Z,5.18
2023-01-23T18:11:54.941Z,4.40
2023-01-23T18:14:59.035Z,4.57
2023-01-23T18:18:10.706Z,6.20
2023-01-23T18:20:57.119Z,4.93
2023-01-23T18:23:42.970Z,5.65
2023-01-23T18:26:43.266Z,5.00
2023-01-23T18:29:30.336Z,5.38
2023-01-23T18:32:34.795Z,5.20
2023-01-23T18:35:32.264Z,4.70
2023-01-23T18:38:51.704Z,4.97
2023-01-23T18:41:53.060Z,4.68
2023-01-23T18:44:42.496Z,4.90
2023-01-23T18:47:28.098Z,4.72
2023-01-23T18:50:19.299Z,4.40
2023-01-23T18:53:17.481Z,4.78
2023-01-23T18:56:05.778Z,5.28
2023-01-23T18:59:12.400Z,4.80
2023-01-23T19:02:13.876Z,4.60
2023-01-23T19:05:12.272Z,5.05
2023-01-23T19:07:59.716Z,4.95
2023-01-23T19:10:49.251Z,4.80
2023-01-23T19:13:56.660Z,5.72
2023-01-23T19:16:48.724Z,5.82
2023-01-23T19:19:45.099Z,5.53
2023-01-23T19:22:45.795Z,6.10
2023-01-23T19:25:31.468Z,5.10
2023-01-23T19:28:17.114Z,4.97
2023-01-23T19:31:02.693Z,4.57
2023-01-23T19:33:48.810Z,4.50
2023-01-23T19:36:36.827Z,4.72
2023-01-23T19:39:22.232Z,4.57
2023-01-23T19:42:13.874Z,5.15
2023-01-23T19:44:59.307Z,4.37
2023-01-23T19:47:45.219Z,4.87
2023-01-23T19:50:30.463Z,5.55
2023-01-23T19:53:17.156Z,5.17
2023-01-23T19:56:02.508Z,4.80
2023-01-23T19:58:48.273Z,4.80
2023-01-23T20:01:41.098Z,5.03
2023-01-23T20:04:26.713Z,5.30
2023-01-23T20:07:12.669Z,5.00
2023-01-23T20:09:58.461Z,5.15
2023-01-23T20:12:51.847Z,5.70
2023-01-23T20:15:37.691Z,4.82
2023-01-23T20:18:23.090Z,4.82
2023-01-23T20:21:08.545Z,4.68
2023-01-23T20:23:54.214Z,5.30
2023-01-23T20:26:40.056Z,6.78
2023-01-23T20:29:25.905Z,5.50
2023-01-23T20:32:11.435Z,4.83
2023-01-23T20:34:57.277Z,4.75
2023-01-23T20:37:42.901Z,5.80
2023-01-23T20:40:28.203Z,3.80
2023-01-23T20:43:13.906Z,6.68
2023-01-23T20:45:59.543Z,4.68
2023-01-23T20:48:45.337Z,5.18
2023-01-23T20:51:30.679Z,5.75
2023-01-23T20:54:16.073Z,5.32
2023-01-23T20:57:01.519Z,4.93
2023-01-23T20:59:47.563Z,5.17
2023-01-23T21:02:33.871Z,4.97
2023-01-23T21:05:19.716Z,4.78
2023-01-23T21:08:05.228Z,5.03
2023-01-23T21:10:52.506Z,4.60
2023-01-23T21:13:37.944Z,5.05
2023-01-23T21:16:23.375Z,4.97
2023-01-23T21:19:09.728Z,4.97
2023-01-23T21:21:55.499Z,5.03
2023-01-23T21:24:40.996Z,4.90
2023-01-23T21:27:26.284Z,5.22
2023-01-23T21:30:12.252Z,4.63
2023-01-23T21:32:57.768Z,5.32
2023-01-23T21:35:48.093Z,4.90
2023-01-23T21:38:33.619Z,4.97
2023-01-23T21:41:19.572Z,5.07
2023-01-23T21:44:05.301Z,4.97
2023-01-23T21:46:50.859Z,4.78
2023-01-23T21:49:36.374Z,5.72
2023-01-23T21:52:21.837Z,5.82
2023-01-23T21:55:08.051Z,4.78
2023-01-23T21:57:53.438Z,5.00
2023-01-23T22:00:57.130Z,4.22
2023-01-23T22:03:43.096Z,5.57
2023-01-23T22:06:29.494Z,4.57
2023-01-23T22:09:17.796Z,5.32
2023-01-23T22:12:03.150Z,4.60
2023-01-23T22:14:48.483Z,4.97
2023-01-23T22:17:34.542Z,4.90
2023-01-23T22:20:20.447Z,4.80
2023-01-23T22:23:06.066Z,4.85
2023-01-23T22:25:55.276Z,4.77
2023-01-23T22:28:40.947Z,4.37
2023-01-23T22:31:26.245Z,4.90
2023-01-23T22:34:11.879Z,4.68
2023-01-23T22:36:57.490Z,4.68
2023-01-23T22:39:44.037Z,4.95
2023-01-23T22:42:29.720Z,4.50
2023-01-23T22:45:15.298Z,4.65
2023-01-23T22:48:01.171Z,5.53
2023-01-23T22:50:46.500Z,4.80
2023-01-23T22:53:32.171Z,4.32
2023-01-23T22:56:17.796Z,4.85
2023-01-23T22:59:03.380Z,4.90
2023-01-23T23:01:48.943Z,4.57
2023-01-23T23:04:34.414Z,5.00
2023-01-23T23:07:19.839Z,4.43
2023-01-23T23:10:09.356Z,4.47
2023-01-23T23:12:54.632Z,5.13
2023-01-23T23:15:40.508Z,5.50
2023-01-23T23:18:25.838Z,5.07
2023-01-23T23:21:14.354Z,4.85
2023-01-23T23:24:00.578Z,5.35
2023-01-23T23:26:46.091Z,5.20
2023-01-23T23:29:31.465Z,5.40
2023-01-23T23:32:16.895Z,4.90
2023-01-23T23:35:02.521Z,5.22
2023-01-23T23:37:47.872Z,5.53
2023-01-23T23:40:33.043Z,4.28
2023-01-23T23:43:18.446Z,4.13
2023-01-23T23:46:06.766Z,4.43
2023-01-23T23:48:52.159Z,3.97
2023-01-23T23:51:37.576Z,5.53
2023-01-23T23:54:23.176Z,4.50
2023-01-23T23:57:08.805Z,5.10
2023-01-23T23:59:54.397Z,4.72
